sensor_id;sensor_type;location;lat;lon;timestamp;pressure;altitude;pressure_sealevel;temperature;humidity
64141;BME280;50436;50.618;7.932;2023-07-13T00:00:02;96542.59;;;17.57;98.65
64141;BME280;50436;50.618;7.932;2023-07-13T00:02:53;96547.28;;;17.51;98.87
64141;BME280;50436;50.618;7.932;2023-07-13T00:05:40;96546.09;;;17.38;99.98
64141;BME280;50436;50.618;7.932;2023-07-13T00:08:30;96541.88;;;17.27;100.00
64141;BME280;50436;50.618;7.932;2023-07-13T00:11:18;96535.84;;;17.11;100.00
64141;BME280;50436;50.618;7.932;2023-07-13T00:14:04;96538.97;;;16.99;100.00
64141;BME280;50436;50.618;7.932;2023-07-13T00:16:50;96546.38;;;16.89;100.00
64141;BME280;50436;50.618;7.932;2023-07-13T00:19:36;96545.97;;;16.77;100.00
64141;BME280;50436;50.618;7.932;2023-07-13T00:22:23;96550.34;;;16.67;100.00
64141;BME280;50436;50.618;7.932;2023-07-13T00:25:11;96546.38;;;16.60;100.00
64141;BME280;50436;50.618;7.932;2023-07-13T00:27:57;96538.06;;;16.51;100.00
64141;BME280;50436;50.618;7.932;2023-07-13T00:30:43;96535.44;;;16.41;100.00
64141;BME280;50436;50.618;7.932;2023-07-13T00:33:29;96535.22;;;16.37;100.00
64141;BME280;50436;50.618;7.932;2023-07-13T00:36:17;96533.09;;;16.34;100.00
64141;BME280;50436;50.618;7.932;2023-07-13T00:39:03;96537.66;;;16.34;100.00
64141;BME280;50436;50.618;7.932;2023-07-13T00:41:51;96527.72;;;16.29;100.00
64141;BME280;50436;50.618;7.932;2023-07-13T00:44:37;96536.38;;;16.26;100.00
64141;BME280;50436;50.618;7.932;2023-07-13T00:47:25;96531.06;;;16.16;100.00
64141;BME280;50436;50.618;7.932;2023-07-13T00:50:12;96540.78;;;16.17;100.00
64141;BME280;50436;50.618;7.932;2023-07-13T00:52:59;96535.94;;;16.14;100.00
64141;BME280;50436;50.618;7.932;2023-07-13T00:55:50;96528.69;;;16.09;100.00
64141;BME280;50436;50.618;7.932;2023-07-13T00:58:36;96530.91;;;16.02;100.00
64141;BME280;50436;50.618;7.932;2023-07-13T01:01:23;96545.47;;;16.01;100.00
64141;BME280;50436;50.618;7.932;2023-07-13T01:04:09;96541.97;;;16.01;100.00
64141;BME280;50436;50.618;7.932;2023-07-13T01:06:56;96534.16;;;15.99;100.00
64141;BME280;50436;50.618;7.932;2023-07-13T01:09:43;96545.56;;;15.91;100.00
64141;BME280;50436;50.618;7.932;2023-07-13T01:12:30;96546.38;;;15.86;100.00
64141;BME280;50436;50.618;7.932;2023-07-13T01:15:40;96550.44;;;15.89;100.00
64141;BME280;50436;50.618;7.932;2023-07-13T01:18:27;96546.97;;;15.78;100.00
64141;BME280;50436;50.618;7.932;2023-07-13T01:21:15;96535.94;;;15.75;100.00
64141;BME280;50436;50.618;7.932;2023-07-13T01:24:01;96542.72;;;15.72;100.00
64141;BME280;50436;50.618;7.932;2023-07-13T01:26:47;96546.25;;;15.68;100.00
64141;BME280;50436;50.618;7.932;2023-07-13T01:29:35;96530.34;;;15.61;100.00
64141;BME280;50436;50.618;7.932;2023-07-13T01:32:27;96532.78;;;15.57;100.00
64141;BME280;50436;50.618;7.932;2023-07-13T01:35:14;96542.50;;;15.53;100.00
64141;BME280;50436;50.618;7.932;2023-07-13T01:38:02;96535.50;;;15.52;100.00
64141;BME280;50436;50.618;7.932;2023-07-13T01:40:48;96525.81;;;15.46;100.00
64141;BME280;50436;50.618;7.932;2023-07-13T01:43:34;96531.00;;;15.38;100.00
64141;BME280;50436;50.618;7.932;2023-07-13T01:46:19;96527.78;;;15.36;100.00
64141;BME280;50436;50.618;7.932;2023-07-13T01:49:05;96532.59;;;15.39;100.00
64141;BME280;50436;50.618;7.932;2023-07-13T01:51:51;96528.88;;;15.29;100.00
64141;BME280;50436;50.618;7.932;2023-07-13T01:54:40;96521.75;;;14.94;100.00
64141;BME280;50436;50.618;7.932;2023-07-13T01:57:26;96534.94;;;14.86;100.00
64141;BME280;50436;50.618;7.932;2023-07-13T02:00:13;96532.84;;;14.72;100.00
64141;BME280;50436;50.618;7.932;2023-07-13T02:03:02;96535.03;;;14.50;100.00
64141;BME280;50436;50.618;7.932;2023-07-13T02:05:48;96536.13;;;14.49;100.00
64141;BME280;50436;50.618;7.932;2023-07-13T02:08:34;96536.38;;;14.53;100.00
64141;BME280;50436;50.618;7.932;2023-07-13T02:11:20;96527.44;;;14.62;100.00
64141;BME280;50436;50.618;7.932;2023-07-13T02:14:06;96521.53;;;14.60;100.00
64141;BME280;50436;50.618;7.932;2023-07-13T02:16:52;96530.16;;;14.52;100.00
64141;BME280;50436;50.618;7.932;2023-07-13T02:19:37;96535.03;;;14.40;100.00
64141;BME280;50436;50.618;7.932;2023-07-13T02:22:23;96530.16;;;14.42;100.00
64141;BME280;50436;50.618;7.932;2023-07-13T02:25:09;96538.22;;;14.32;100.00
64141;BME280;50436;50.618;7.932;2023-07-13T02:27:55;96550.06;;;14.31;100.00
64141;BME280;50436;50.618;7.932;2023-07-13T02:30:41;96544.69;;;14.31;100.00
64141;BME280;50436;50.618;7.932;2023-07-13T02:33:26;96543.38;;;14.33;100.00
64141;BME280;50436;50.618;7.932;2023-07-13T02:36:13;96543.09;;;14.35;100.00
64141;BME280;50436;50.618;7.932;2023-07-13T02:39:05;96548.47;;;14.30;100.00
64141;BME280;50436;50.618;7.932;2023-07-13T02:41:55;96546.31;;;14.32;100.00
64141;BME280;50436;50.618;7.932;2023-07-13T02:44:41;96546.59;;;14.35;100.00
64141;BME280;50436;50.618;7.932;2023-07-13T02:47:27;96551.47;;;14.48;100.00
64141;BME280;50436;50.618;7.932;2023-07-13T02:50:12;96548.72;;;14.43;100.00
64141;BME280;50436;50.618;7.932;2023-07-13T02:52:58;96543.34;;;14.23;100.00
64141;BME280;50436;50.618;7.932;2023-07-13T02:55:44;96543.09;;;14.25;100.00
64141;BME280;50436;50.618;7.932;2023-07-13T02:58:33;96553.03;;;14.14;100.00
64141;BME280;50436;50.618;7.932;2023-07-13T03:01:21;96544.16;;;14.13;100.00
64141;BME280;50436;50.618;7.932;2023-07-13T03:04:07;96549.28;;;14.20;100.00
64141;BME280;50436;50.618;7.932;2023-07-13T03:06:54;96545.25;;;14.17;100.00
64141;BME280;50436;50.618;7.932;2023-07-13T03:09:45;96536.91;;;14.19;100.00
64141;BME280;50436;50.618;7.932;2023-07-13T03:12:32;96544.69;;;14.31;100.00
64141;BME280;50436;50.618;7.932;2023-07-13T03:15:18;96535.28;;;14.23;100.00
64141;BME280;50436;50.618;7.932;2023-07-13T03:18:05;96542.53;;;14.22;100.00
64141;BME280;50436;50.618;7.932;2023-07-13T03:20:52;96547.66;;;14.14;100.00
64141;BME280;50436;50.618;7.932;2023-07-13T03:23:38;96542.56;;;14.02;100.00
64141;BME280;50436;50.618;7.932;2023-07-13T03:26:24;96553.31;;;14.02;100.00
64141;BME280;50436;50.618;7.932;2023-07-13T03:29:10;96560.81;;;14.00;100.00
64141;BME280;50436;50.618;7.932;2023-07-13T03:31:56;96552.22;;;13.98;100.00
64141;BME280;50436;50.618;7.932;2023-07-13T03:34:42;96570.00;;;14.09;100.00
64141;BME280;50436;50.618;7.932;2023-07-13T03:37:28;96559.47;;;14.08;100.00
64141;BME280;50436;50.618;7.932;2023-07-13T03:40:15;96557.88;;;14.12;100.00
64141;BME280;50436;50.618;7.932;2023-07-13T03:43:03;96561.41;;;14.17;100.00
64141;BME280;50436;50.618;7.932;2023-07-13T03:45:50;96578.91;;;14.25;100.00
64141;BME280;50436;50.618;7.932;2023-07-13T03:48:35;96568.38;;;14.18;100.00
64141;BME280;50436;50.618;7.932;2023-07-13T03:51:21;96570.53;;;14.16;100.00
64141;BME280;50436;50.618;7.932;2023-07-13T03:54:07;96568.38;;;14.18;100.00
64141;BME280;50436;50.618;7.932;2023-07-13T03:56:53;96573.50;;;14.25;100.00
64141;BME280;50436;50.618;7.932;2023-07-13T03:59:41;96558.94;;;14.31;100.00
64141;BME280;50436;50.618;7.932;2023-07-13T04:02:28;96559.78;;;14.27;100.00
64141;BME280;50436;50.618;7.932;2023-07-13T04:05:13;96562.44;;;14.32;100.00
64141;BME280;50436;50.618;7.932;2023-07-13T04:07:59;96563.56;;;14.26;100.00
64141;BME280;50436;50.618;7.932;2023-07-13T04:10:45;96566.78;;;14.33;100.00
64141;BME280;50436;50.618;7.932;2023-07-13T04:13:31;96563.81;;;14.44;100.00
64141;BME280;50436;50.618;7.932;2023-07-13T04:16:18;96567.59;;;14.54;100.00
64141;BME280;50436;50.618;7.932;2023-07-13T04:19:04;96564.63;;;14.55;100.00
64141;BME280;50436;50.618;7.932;2023-07-13T04:21:50;96570.00;;;14.55;100.00
64141;BME280;50436;50.618;7.932;2023-07-13T04:24:36;96567.59;;;14.59;100.00
64141;BME280;50436;50.618;7.932;2023-07-13T04:27:22;96570.31;;;14.48;100.00
64141;BME280;50436;50.618;7.932;2023-07-13T04:30:09;96576.44;;;14.39;100.00
64141;BME280;50436;50.618;7.932;2023-07-13T04:32:55;96579.16;;;14.34;100.00
64141;BME280;50436;50.618;7.932;2023-07-13T04:35:40;96582.38;;;14.31;100.00
64141;BME280;50436;50.618;7.932;2023-07-13T04:38:28;96582.38;;;14.31;100.00
64141;BME280;50436;50.618;7.932;2023-07-13T04:41:15;96589.09;;;14.23;100.00
64141;BME280;50436;50.618;7.932;2023-07-13T04:44:01;96586.69;;;14.32;100.00
64141;BME280;50436;50.618;7.932;2023-07-13T04:46:48;96585.34;;;14.44;100.00
64141;BME280;50436;50.618;7.932;2023-07-13T04:49:34;96585.63;;;14.53;100.00
64141;BME280;50436;50.618;7.932;2023-07-13T04:52:20;96589.41;;;14.57;100.00
64141;BME280;50436;50.618;7.932;2023-07-13T04:55:06;96590.50;;;14.56;100.00
64141;BME280;50436;50.618;7.932;2023-07-13T04:57:52;96587.50;;;14.63;100.00
64141;BME280;50436;50.618;7.932;2023-07-13T05:00:39;96588.59;;;14.67;100.00
64141;BME280;50436;50.618;7.932;2023-07-13T05:03:25;96582.94;;;14.63;100.00
64141;BME280;50436;50.618;7.932;2023-07-13T05:06:10;96585.63;;;14.53;100.00
64141;BME280;50436;50.618;7.932;2023-07-13T05:08:56;96591.56;;;14.60;100.00
64141;BME280;50436;50.618;7.932;2023-07-13T05:11:43;96594.53;;;14.64;100.00
64141;BME280;50436;50.618;7.932;2023-07-13T05:14:29;96587.50;;;14.68;100.00
64141;BME280;50436;50.618;7.932;2023-07-13T05:17:15;96596.94;;;14.75;100.00
64141;BME280;50436;50.618;7.932;2023-07-13T05:20:01;96597.22;;;14.79;100.00
64141;BME280;50436;50.618;7.932;2023-07-13T05:22:46;96590.47;;;14.76;100.00
64141;BME280;50436;50.618;7.932;2023-07-13T05:25:33;96599.06;;;14.84;100.00
64141;BME280;50436;50.618;7.932;2023-07-13T05:28:21;96596.34;;;14.94;100.00
64141;BME280;50436;50.618;7.932;2023-07-13T05:31:09;96594.47;;;14.99;100.00
64141;BME280;50436;50.618;7.932;2023-07-13T05:33:55;96610.06;;;15.13;100.00
64141;BME280;50436;50.618;7.932;2023-07-13T05:36:41;96605.19;;;15.20;100.00
64141;BME280;50436;50.618;7.932;2023-07-13T05:39:27;96607.06;;;15.24;100.00
64141;BME280;50436;50.618;7.932;2023-07-13T05:42:13;96599.25;;;15.28;100.00
64141;BME280;50436;50.618;7.932;2023-07-13T05:44:59;96607.84;;;15.35;100.00
64141;BME280;50436;50.618;7.932;2023-07-13T05:47:44;96610.78;;;15.39;100.00
64141;BME280;50436;50.618;7.932;2023-07-13T05:50:30;96614.00;;;15.46;100.00
64141;BME280;50436;50.618;7.932;2023-07-13T05:53:17;96604.81;;;15.52;100.00
64141;BME280;50436;50.618;7.932;2023-07-13T05:56:03;96616.13;;;15.59;100.00
64141;BME280;50436;50.618;7.932;2023-07-13T05:58:49;96606.13;;;15.59;100.00
64141;BME280;50436;50.618;7.932;2023-07-13T06:01:35;96618.78;;;15.69;100.00
64141;BME280;50436;50.618;7.932;2023-07-13T06:04:21;96616.59;;;15.76;100.00
64141;BME280;50436;50.618;7.932;2023-07-13T06:07:06;96625.50;;;15.77;100.00
64141;BME280;50436;50.618;7.932;2023-07-13T06:09:55;96627.38;;;15.76;100.00
64141;BME280;50436;50.618;7.932;2023-07-13T06:12:40;96636.00;;;15.78;100.00
64141;BME280;50436;50.618;7.932;2023-07-13T06:15:26;96624.63;;;15.86;100.00
64141;BME280;50436;50.618;7.932;2023-07-13T06:18:12;96631.38;;;15.89;100.00
64141;BME280;50436;50.618;7.932;2023-07-13T06:20:58;96631.63;;;15.93;100.00
64141;BME280;50436;50.618;7.932;2023-07-13T06:23:45;96628.06;;;16.02;100.00
64141;BME280;50436;50.618;7.932;2023-07-13T06:26:33;96638.03;;;16.07;100.00
64141;BME280;50436;50.618;7.932;2023-07-13T06:29:19;96636.94;;;16.08;100.00
64141;BME280;50436;50.618;7.932;2023-07-13T06:32:05;96639.09;;;16.11;100.00
64141;BME280;50436;50.618;7.932;2023-07-13T06:34:51;96641.03;;;16.00;100.00
64141;BME280;50436;50.618;7.932;2023-07-13T06:37:39;96639.13;;;16.06;100.00
64141;BME280;50436;50.618;7.932;2023-07-13T06:40:25;96636.31;;;16.21;100.00
64141;BME280;50436;50.618;7.932;2023-07-13T06:43:11;96648.66;;;16.32;100.00
64141;BME280;50436;50.618;7.932;2023-07-13T06:45:59;96645.94;;;16.37;100.00
64141;BME280;50436;50.618;7.932;2023-07-13T06:48:45;96649.44;;;16.38;100.00
64141;BME280;50436;50.618;7.932;2023-07-13T06:51:31;96643.47;;;16.41;100.00
64141;BME280;50436;50.618;7.932;2023-07-13T06:54:17;96645.34;;;16.46;100.00
64141;BME280;50436;50.618;7.932;2023-07-13T06:57:03;96649.66;;;16.47;100.00
64141;BME280;50436;50.618;7.932;2023-07-13T06:59:49;96654.06;;;16.32;100.00
64141;BME280;50436;50.618;7.932;2023-07-13T07:02:35;96641.31;;;16.43;100.00
64141;BME280;50436;50.618;7.932;2023-07-13T07:05:21;96647.22;;;16.50;100.00
64141;BME280;50436;50.618;7.932;2023-07-13T07:08:09;96647.91;;;16.66;100.00
64141;BME280;50436;50.618;7.932;2023-07-13T07:10:55;96649.41;;;16.82;100.00
64141;BME280;50436;50.618;7.932;2023-07-13T07:13:41;96655.22;;;16.94;100.00
64141;BME280;50436;50.618;7.932;2023-07-13T07:16:27;96652.03;;;16.87;100.00
64141;BME280;50436;50.618;7.932;2023-07-13T07:19:13;96658.22;;;17.22;100.00
64141;BME280;50436;50.618;7.932;2023-07-13T07:21:59;96662.38;;;17.14;100.00
64141;BME280;50436;50.618;7.932;2023-07-13T07:24:46;96652.06;;;17.16;100.00
64141;BME280;50436;50.618;7.932;2023-07-13T07:27:32;96661.75;;;17.22;100.00
64141;BME280;50436;50.618;7.932;2023-07-13T07:30:18;96648.44;;;17.26;100.00
64141;BME280;50436;50.618;7.932;2023-07-13T07:33:04;96649.25;;;17.26;100.00
64141;BME280;50436;50.618;7.932;2023-07-13T07:35:50;96653.84;;;17.26;100.00
64141;BME280;50436;50.618;7.932;2023-07-13T07:38:36;96658.28;;;17.41;100.00
64141;BME280;50436;50.618;7.932;2023-07-13T07:41:22;96655.53;;;17.70;100.00
64141;BME280;50436;50.618;7.932;2023-07-13T07:44:08;96656.25;;;17.80;100.00
64141;BME280;50436;50.618;7.932;2023-07-13T07:46:55;96653.19;;;17.87;100.00
64141;BME280;50436;50.618;7.932;2023-07-13T07:49:41;96665.28;;;17.95;100.00
64141;BME280;50436;50.618;7.932;2023-07-13T07:52:26;96662.22;;;17.53;100.00
64141;BME280;50436;50.618;7.932;2023-07-13T07:55:12;96667.34;;;17.55;100.00
64141;BME280;50436;50.618;7.932;2023-07-13T07:57:58;96675.25;;;17.51;100.00
64141;BME280;50436;50.618;7.932;2023-07-13T08:00:44;96671.72;;;17.51;100.00
64141;BME280;50436;50.618;7.932;2023-07-13T08:03:30;96673.59;;;17.50;100.00
64141;BME280;50436;50.618;7.932;2023-07-13T08:06:16;96674.19;;;17.47;100.00
64141;BME280;50436;50.618;7.932;2023-07-13T08:09:02;96672.41;;;17.62;100.00
64141;BME280;50436;50.618;7.932;2023-07-13T08:11:49;96667.66;;;17.77;100.00
64141;BME280;50436;50.618;7.932;2023-07-13T08:14:36;96664.56;;;18.08;100.00
64141;BME280;50436;50.618;7.932;2023-07-13T08:17:24;96672.47;;;18.23;100.00
64141;BME280;50436;50.618;7.932;2023-07-13T08:20:20;96659.16;;;18.27;100.00
64141;BME280;50436;50.618;7.932;2023-07-13T08:23:22;96666.63;;;18.35;100.00
64141;BME280;50436;50.618;7.932;2023-07-13T08:26:09;96659.53;;;18.39;100.00
64141;BME280;50436;50.618;7.932;2023-07-13T08:28:55;96661.13;;;18.59;100.00
64141;BME280;50436;50.618;7.932;2023-07-13T08:31:40;96661.00;;;18.69;100.00
64141;BME280;50436;50.618;7.932;2023-07-13T08:34:26;96668.47;;;18.77;100.00
64141;BME280;50436;50.618;7.932;2023-07-13T08:37:12;96658.84;;;18.85;100.00
64141;BME280;50436;50.618;7.932;2023-07-13T08:39:58;96657.91;;;19.22;100.00
64141;BME280;50436;50.618;7.932;2023-07-13T08:42:45;96670.31;;;19.42;96.80
64141;BME280;50436;50.618;7.932;2023-07-13T08:48:26;96663.50;;;19.31;97.18
64141;BME280;50436;50.618;7.932;2023-07-13T08:51:24;96665.50;;;19.39;97.60
64141;BME280;50436;50.618;7.932;2023-07-13T08:54:26;96663.94;;;19.65;97.69
64141;BME280;50436;50.618;7.932;2023-07-13T08:57:16;96656.88;;;19.92;96.36
64141;BME280;50436;50.618;7.932;2023-07-13T09:00:02;96661.00;;;20.17;94.23
64141;BME280;50436;50.618;7.932;2023-07-13T09:02:57;96664.19;;;20.19;94.32
64141;BME280;50436;50.618;7.932;2023-07-13T09:05:50;96648.03;;;20.00;93.31
64141;BME280;50436;50.618;7.932;2023-07-13T09:09:06;96667.63;;;20.11;92.79
64141;BME280;50436;50.618;7.932;2023-07-13T09:12:02;96653.91;;;20.66;90.27
64141;BME280;50436;50.618;7.932;2023-07-13T09:14:57;96666.25;;;20.36;91.24
64141;BME280;50436;50.618;7.932;2023-07-13T09:17:52;96654.50;;;20.40;90.80
64141;BME280;50436;50.618;7.932;2023-07-13T09:20:54;96648.28;;;20.84;90.75
64141;BME280;50436;50.618;7.932;2023-07-13T09:23:42;96657.56;;;20.83;89.91
64141;BME280;50436;50.618;7.932;2023-07-13T09:26:30;96654.16;;;20.55;90.62
64141;BME280;50436;50.618;7.932;2023-07-13T09:29:28;96663.63;;;20.80;89.51
64141;BME280;50436;50.618;7.932;2023-07-13T09:32:18;96659.16;;;20.84;88.28
64141;BME280;50436;50.618;7.932;2023-07-13T09:35:11;96651.53;;;20.86;89.53
64141;BME280;50436;50.618;7.932;2023-07-13T09:38:04;96647.44;;;20.98;87.78
64141;BME280;50436;50.618;7.932;2023-07-13T09:46:57;96649.56;;;21.32;85.74
64141;BME280;50436;50.618;7.932;2023-07-13T09:49:45;96652.19;;;21.46;83.51
64141;BME280;50436;50.618;7.932;2023-07-13T09:52:42;96651.84;;;21.78;80.71
64141;BME280;50436;50.618;7.932;2023-07-13T09:55:35;96648.84;;;21.88;79.26
64141;BME280;50436;50.618;7.932;2023-07-13T09:58:25;96649.44;;;22.68;78.69
64141;BME280;50436;50.618;7.932;2023-07-13T10:01:12;96648.94;;;23.10;75.14
64141;BME280;50436;50.618;7.932;2023-07-13T10:03:58;96647.84;;;22.76;74.67
64141;BME280;50436;50.618;7.932;2023-07-13T10:06:44;96654.72;;;22.39;75.73
64141;BME280;50436;50.618;7.932;2023-07-13T10:09:30;96649.13;;;22.96;73.63
64141;BME280;50436;50.618;7.932;2023-07-13T10:12:18;96645.28;;;23.52;69.08
64141;BME280;50436;50.618;7.932;2023-07-13T10:15:09;96643.16;;;23.11;69.71
64141;BME280;50436;50.618;7.932;2023-07-13T10:17:59;96656.50;;;22.78;72.47
64141;BME280;50436;50.618;7.932;2023-07-13T10:20:45;96666.13;;;22.67;70.56
64141;BME280;50436;50.618;7.932;2023-07-13T10:23:32;96643.31;;;22.80;71.86
64141;BME280;50436;50.618;7.932;2023-07-13T10:26:23;96643.88;;;23.38;71.96
64141;BME280;50436;50.618;7.932;2023-07-13T10:29:12;96640.78;;;23.95;67.20
64141;BME280;50436;50.618;7.932;2023-07-13T10:31:59;96655.84;;;24.30;62.65
64141;BME280;50436;50.618;7.932;2023-07-13T10:34:46;96647.00;;;24.54;57.80
64141;BME280;50436;50.618;7.932;2023-07-13T10:37:49;96651.28;;;24.13;64.96
64141;BME280;50436;50.618;7.932;2023-07-13T10:41:05;96654.41;;;23.65;63.76
64141;BME280;50436;50.618;7.932;2023-07-13T10:43:54;96651.38;;;23.49;69.76
64141;BME280;50436;50.618;7.932;2023-07-13T10:46:41;96651.53;;;23.61;71.33
64141;BME280;50436;50.618;7.932;2023-07-13T10:49:31;96664.56;;;23.47;65.70
64141;BME280;50436;50.618;7.932;2023-07-13T10:52:42;96660.41;;;23.41;62.44
64141;BME280;50436;50.618;7.932;2023-07-13T10:55:54;96659.66;;;23.79;64.18
64141;BME280;50436;50.618;7.932;2023-07-13T10:58:42;96664.69;;;23.68;63.58
64141;BME280;50436;50.618;7.932;2023-07-13T11:01:46;96667.16;;;24.70;54.86
64141;BME280;50436;50.618;7.932;2023-07-13T11:04:46;96661.38;;;25.38;53.10
64141;BME280;50436;50.618;7.932;2023-07-13T11:07:52;96655.06;;;25.95;46.21
64141;BME280;50436;50.618;7.932;2023-07-13T11:10:54;96661.38;;;25.05;50.01
64141;BME280;50436;50.618;7.932;2023-07-13T11:25:00;96669.75;;;23.87;63.78
64141;BME280;50436;50.618;7.932;2023-07-13T11:27:51;96670.53;;;23.87;59.96
64141;BME280;50436;50.618;7.932;2023-07-13T11:30:44;96665.03;;;23.49;63.82
64141;BME280;50436;50.618;7.932;2023-07-13T11:36:39;96672.66;;;23.35;67.49
64141;BME280;50436;50.618;7.932;2023-07-13T11:39:46;96665.84;;;23.58;60.66
64141;BME280;50436;50.618;7.932;2023-07-13T11:42:35;96678.41;;;24.48;55.05
64141;BME280;50436;50.618;7.932;2023-07-13T11:45:21;96665.13;;;24.80;55.39
64141;BME280;50436;50.618;7.932;2023-07-13T11:48:29;96674.34;;;24.33;54.04
64141;BME280;50436;50.618;7.932;2023-07-13T11:51:37;96670.56;;;24.47;50.81
64141;BME280;50436;50.618;7.932;2023-07-13T11:54:33;96684.31;;;24.00;57.83
64141;BME280;50436;50.618;7.932;2023-07-13T11:57:33;96694.78;;;23.42;62.34
64141;BME280;50436;50.618;7.932;2023-07-13T12:00:26;96677.72;;;24.01;61.34
64141;BME280;50436;50.618;7.932;2023-07-13T12:03:20;96676.50;;;24.69;54.35
64141;BME280;50436;50.618;7.932;2023-07-13T12:06:21;96677.00;;;26.32;39.35
64141;BME280;50436;50.618;7.932;2023-07-13T12:09:14;96675.94;;;25.18;43.37
64141;BME280;50436;50.618;7.932;2023-07-13T12:12:11;96672.06;;;24.35;46.07
64141;BME280;50436;50.618;7.932;2023-07-13T12:14:57;96677.06;;;23.66;53.85
64141;BME280;50436;50.618;7.932;2023-07-13T12:17:43;96673.47;;;23.27;61.25
64141;BME280;50436;50.618;7.932;2023-07-13T12:20:35;96676.22;;;23.01;64.12
64141;BME280;50436;50.618;7.932;2023-07-13T12:23:29;96678.31;;;22.95;64.25
64141;BME280;50436;50.618;7.932;2023-07-13T12:26:17;96683.22;;;23.45;61.87
64141;BME280;50436;50.618;7.932;2023-07-13T12:29:06;96687.81;;;24.09;58.50
64141;BME280;50436;50.618;7.932;2023-07-13T12:31:52;96687.78;;;25.67;46.26
64141;BME280;50436;50.618;7.932;2023-07-13T12:34:54;96691.47;;;27.53;35.97
64141;BME280;50436;50.618;7.932;2023-07-13T12:37:46;96679.94;;;26.63;39.14
64141;BME280;50436;50.618;7.932;2023-07-13T12:40:34;96671.34;;;25.67;39.06
64141;BME280;50436;50.618;7.932;2023-07-13T12:43:22;96693.53;;;24.75;45.68
64141;BME280;50436;50.618;7.932;2023-07-13T12:46:26;96698.50;;;24.23;45.71
64141;BME280;50436;50.618;7.932;2023-07-13T12:49:14;96704.38;;;25.05;46.73
64141;BME280;50436;50.618;7.932;2023-07-13T12:52:03;96705.63;;;24.65;47.83
64141;BME280;50436;50.618;7.932;2023-07-13T12:54:56;96715.19;;;24.00;51.49
64141;BME280;50436;50.618;7.932;2023-07-13T12:57:55;96704.97;;;23.80;54.30
64141;BME280;50436;50.618;7.932;2023-07-13T13:00:48;96712.22;;;23.76;56.79
64141;BME280;50436;50.618;7.932;2023-07-13T13:03:40;96712.66;;;23.86;60.92
64141;BME280;50436;50.618;7.932;2023-07-13T13:06:28;96716.81;;;23.93;61.59
64141;BME280;50436;50.618;7.932;2023-07-13T13:09:16;96715.06;;;23.88;58.96
64141;BME280;50436;50.618;7.932;2023-07-13T13:12:04;96716.66;;;23.98;63.44
64141;BME280;50436;50.618;7.932;2023-07-13T13:14:51;96722.53;;;24.08;61.48
64141;BME280;50436;50.618;7.932;2023-07-13T13:17:38;96727.88;;;24.05;57.70
64141;BME280;50436;50.618;7.932;2023-07-13T13:20:25;96714.63;;;24.15;57.34
64141;BME280;50436;50.618;7.932;2023-07-13T13:23:17;96724.63;;;24.41;53.62
64141;BME280;50436;50.618;7.932;2023-07-13T13:26:09;96722.13;;;24.57;52.49
64141;BME280;50436;50.618;7.932;2023-07-13T13:28:56;96715.94;;;24.68;50.13
64141;BME280;50436;50.618;7.932;2023-07-13T13:31:42;96717.78;;;25.51;47.10
64141;BME280;50436;50.618;7.932;2023-07-13T13:34:28;96713.44;;;26.08;43.60
64141;BME280;50436;50.618;7.932;2023-07-13T13:37:22;96723.47;;;25.79;44.95
64141;BME280;50436;50.618;7.932;2023-07-13T13:40:17;96720.78;;;25.25;44.31
64141;BME280;50436;50.618;7.932;2023-07-13T13:43:14;96719.91;;;28.36;35.81
64141;BME280;50436;50.618;7.932;2023-07-13T13:46:01;96718.03;;;30.41;30.61
64141;BME280;50436;50.618;7.932;2023-07-13T13:48:47;96703.88;;;31.66;28.67
64141;BME280;50436;50.618;7.932;2023-07-13T13:51:34;96705.97;;;31.76;26.71
64141;BME280;50436;50.618;7.932;2023-07-13T13:54:21;96719.84;;;29.84;29.18
64141;BME280;50436;50.618;7.932;2023-07-13T13:57:08;96715.22;;;29.26;31.50
64141;BME280;50436;50.618;7.932;2023-07-13T13:59:54;96716.19;;;29.57;31.21
64141;BME280;50436;50.618;7.932;2023-07-13T14:02:45;96711.22;;;34.53;23.91
64141;BME280;50436;50.618;7.932;2023-07-13T14:05:33;96715.34;;;31.65;25.92
64141;BME280;50436;50.618;7.932;2023-07-13T14:08:21;96715.16;;;30.83;27.59
64141;BME280;50436;50.618;7.932;2023-07-13T14:11:13;96715.56;;;32.30;25.14
64141;BME280;50436;50.618;7.932;2023-07-13T14:14:00;96716.56;;;29.55;29.46
64141;BME280;50436;50.618;7.932;2023-07-13T14:16:47;96721.66;;;28.60;30.91
64141;BME280;50436;50.618;7.932;2023-07-13T14:19:38;96723.81;;;28.35;31.83
64141;BME280;50436;50.618;7.932;2023-07-13T14:22:25;96734.03;;;27.59;33.98
64141;BME280;50436;50.618;7.932;2023-07-13T14:25:12;96740.94;;;26.85;36.66
64141;BME280;50436;50.618;7.932;2023-07-13T14:27:59;96732.28;;;26.22;38.34
64141;BME280;50436;50.618;7.932;2023-07-13T14:30:46;96733.13;;;25.65;41.13
64141;BME280;50436;50.618;7.932;2023-07-13T14:33:32;96734.75;;;24.91;43.79
64141;BME280;50436;50.618;7.932;2023-07-13T14:36:32;96740.44;;;24.27;43.92
64141;BME280;50436;50.618;7.932;2023-07-13T14:39:22;96730.06;;;24.11;46.38
64141;BME280;50436;50.618;7.932;2023-07-13T14:42:09;96726.75;;;24.35;47.04
64141;BME280;50436;50.618;7.932;2023-07-13T14:44:55;96727.22;;;24.67;44.35
64141;BME280;50436;50.618;7.932;2023-07-13T14:47:42;96731.44;;;25.06;44.07
64141;BME280;50436;50.618;7.932;2023-07-13T14:50:32;96732.25;;;25.40;42.21
64141;BME280;50436;50.618;7.932;2023-07-13T14:53:18;96739.31;;;25.41;42.54
64141;BME280;50436;50.618;7.932;2023-07-13T14:56:10;96716.41;;;26.03;41.04
64141;BME280;50436;50.618;7.932;2023-07-13T14:58:56;96731.44;;;27.79;34.48
64141;BME280;50436;50.618;7.932;2023-07-13T15:01:42;96715.97;;;30.87;28.84
64141;BME280;50436;50.618;7.932;2023-07-13T15:04:29;96712.63;;;32.09;27.08
64141;BME280;50436;50.618;7.932;2023-07-13T15:07:15;96719.91;;;31.50;26.68
64141;BME280;50436;50.618;7.932;2023-07-13T15:10:21;96726.91;;;30.04;29.19